P.t. Monto — VMBF — position and weather

sailwx.info

Track history (hours):
 
Tides and Currents Weather Stations Pressure Air Temp Water Temp Dewpoint Dewpoint Depression Visibility Wind Speed Wind Dir Waves Ship Positions

P.t. Monto

Last reported at 2015-Aug-28 12:30 UTC. Time now 2015-Aug-31 23:52 UTC.
Position S 27°22' E 153°10'.

Length 32 m; draft 3 m.

Type: Tug. MMSI: 503612000.

Date/timePositionNaut miles runAvg speedWind from/ knotsBaromVisibWave heightAir tempDewpointWater temp
2015-Aug-28 12:30S 27°22' E 153°10'5 4.9
2015-Aug-28 11:24S 27°18' E 153°13'5 5.8
2015-Aug-28 10:31S 27°13' E 153°16'6 6.0
2015-Aug-28 09:32S 27°08' E 153°19'6 6.5
2015-Aug-28 08:33S 27°03' E 153°16'7 7.3
2015-Aug-28 07:33S 26°56' E 153°12'7 5.4
2015-Aug-28 06:16S 26°50' E 153°09'0 0.0
2015-Aug-27 23:29S 26°50' E 153°09'2 1.1
2015-Aug-27 21:31S 26°52' E 153°09'6 5.1
2015-Aug-27 20:22S 26°57' E 153°12'4 5.0
2015-Aug-27 19:33S 27°01' E 153°14'5 4.6
2015-Aug-27 18:29S 27°04' E 153°18'5 4.9
2015-Aug-27 17:33S 27°09' E 153°20'  
Track history (hours):
 
Tides and Currents Weather Stations Pressure Air Temp Water Temp Dewpoint Dewpoint Depression Visibility Wind Speed Wind Dir Waves Ship Positions

P.t. Monto

Last reported at 2015-Aug-28 12:30 UTC. Time now 2015-Aug-31 23:52 UTC.
Position S 27°22' E 153°10'.

Length 32 m; draft 3 m.

Type: Tug. MMSI: 503612000.

Date/timePositionNaut miles runAvg speedWind from/ knotsBaromVisibWave heightAir tempDewpointWater temp
2015-Aug-28 12:30S 27°22' E 153°10'5 4.9
2015-Aug-28 11:24S 27°18' E 153°13'5 5.8
2015-Aug-28 10:31S 27°13' E 153°16'6 6.0
2015-Aug-28 09:32S 27°08' E 153°19'6 6.5
2015-Aug-28 08:33S 27°03' E 153°16'7 7.3
2015-Aug-28 07:33S 26°56' E 153°12'7 5.4
2015-Aug-28 06:16S 26°50' E 153°09'0 0.0
2015-Aug-27 23:29S 26°50' E 153°09'2 1.1
2015-Aug-27 21:31S 26°52' E 153°09'6 5.1
2015-Aug-27 20:22S 26°57' E 153°12'4 5.0
2015-Aug-27 19:33S 27°01' E 153°14'5 4.6
2015-Aug-27 18:29S 27°04' E 153°18'5 4.9
2015-Aug-27 17:33S 27°09' E 153°20'  

Dump ship's entire track history